createdAt,value
2018-07-02T00:00:09.070Z,99.90
2018-07-02T00:02:37.918Z,99.90
2018-07-02T00:05:06.845Z,99.90
2018-07-02T00:07:35.624Z,99.90
2018-07-02T00:10:04.655Z,99.90
2018-07-02T00:12:33.578Z,99.90
2018-07-02T00:15:02.372Z,99.90
2018-07-02T00:17:31.215Z,99.90
2018-07-02T00:19:59.981Z,99.90
2018-07-02T00:22:28.746Z,99.90
2018-07-02T00:24:57.524Z,99.90
2018-07-02T00:27:26.289Z,99.90
2018-07-02T00:29:55.075Z,99.90
2018-07-02T00:32:23.828Z,99.90
2018-07-02T00:34:52.614Z,99.90
2018-07-02T00:37:21.380Z,99.90
2018-07-02T00:39:50.279Z,99.90
2018-07-02T00:42:19.058Z,99.90
2018-07-02T00:44:47.842Z,99.90
2018-07-02T00:47:16.595Z,99.90
2018-07-02T00:49:45.365Z,99.90
2018-07-02T00:52:14.126Z,99.90
2018-07-02T00:54:43.005Z,99.90
2018-07-02T00:57:11.715Z,99.90
2018-07-02T00:59:40.508Z,99.90
2018-07-02T01:02:09.276Z,99.90
2018-07-02T01:04:38.166Z,99.90
2018-07-02T01:07:08.403Z,99.90
2018-07-02T01:09:37.309Z,99.90
2018-07-02T01:12:06.480Z,99.90
2018-07-02T01:14:35.290Z,99.90
2018-07-02T01:17:04.153Z,99.90
2018-07-02T01:19:32.938Z,99.90
2018-07-02T01:22:01.778Z,99.90
2018-07-02T01:24:30.568Z,99.90
2018-07-02T01:26:59.414Z,99.90
2018-07-02T01:29:28.294Z,99.90
2018-07-02T01:31:57.058Z,99.90
2018-07-02T01:34:25.841Z,99.90
2018-07-02T01:36:54.636Z,99.90
2018-07-02T01:39:23.390Z,99.90
2018-07-02T01:41:52.211Z,99.90
2018-07-02T01:44:21.015Z,99.90
2018-07-02T01:46:49.830Z,99.90
2018-07-02T01:49:18.599Z,99.90
2018-07-02T01:51:47.406Z,99.90
2018-07-02T01:54:16.166Z,99.90
2018-07-02T01:56:44.923Z,99.90
2018-07-02T01:59:13.774Z,99.90
2018-07-02T02:01:42.562Z,99.90
2018-07-02T02:04:11.328Z,99.90
2018-07-02T02:06:40.107Z,99.90
2018-07-02T02:09:10.479Z,99.90
2018-07-02T02:11:39.480Z,99.90
2018-07-02T02:14:08.611Z,99.90
2018-07-02T02:16:37.461Z,99.90
2018-07-02T02:19:06.546Z,99.90
2018-07-02T02:21:35.334Z,99.90
2018-07-02T02:24:04.103Z,99.90
2018-07-02T02:26:32.897Z,99.90
2018-07-02T02:29:01.703Z,99.90
2018-07-02T02:31:30.592Z,99.90
2018-07-02T02:33:59.351Z,99.90
2018-07-02T02:36:28.174Z,99.90
2018-07-02T02:38:56.996Z,99.90
2018-07-02T02:41:25.779Z,99.90
2018-07-02T02:43:54.549Z,99.90
2018-07-02T02:46:23.347Z,99.90
2018-07-02T02:48:52.127Z,99.90
2018-07-02T02:51:21.837Z,99.90
2018-07-02T02:53:50.594Z,99.90
2018-07-02T02:56:19.413Z,99.90
2018-07-02T02:58:48.166Z,99.90
2018-07-02T03:01:16.990Z,99.90
2018-07-02T03:03:46.761Z,99.90
2018-07-02T03:06:15.532Z,99.90
2018-07-02T03:08:44.398Z,99.90
2018-07-02T03:11:13.186Z,99.90
2018-07-02T03:13:41.962Z,99.90
2018-07-02T03:16:10.750Z,99.90
2018-07-02T03:18:39.503Z,99.90
2018-07-02T03:21:08.313Z,99.90
2018-07-02T03:23:37.134Z,99.90
2018-07-02T03:26:05.895Z,99.90
2018-07-02T03:28:34.677Z,99.90
2018-07-02T03:31:03.600Z,99.90
2018-07-02T03:33:32.486Z,99.90
2018-07-02T03:36:01.266Z,99.90
2018-07-02T03:38:30.097Z,99.90
2018-07-02T03:40:58.958Z,99.90
2018-07-02T03:43:27.927Z,99.90
2018-07-02T03:45:56.901Z,99.90
2018-07-02T03:48:25.717Z,99.90
2018-07-02T03:50:55.318Z,99.90
2018-07-02T03:53:24.564Z,99.90
2018-07-02T03:55:53.951Z,99.90
2018-07-02T03:58:23.326Z,99.90
2018-07-02T04:00:52.712Z,99.90
2018-07-02T04:03:22.528Z,99.90
2018-07-02T04:05:52.728Z,99.90
2018-07-02T04:08:21.842Z,99.90
2018-07-02T04:10:52.773Z,99.90
2018-07-02T04:13:21.734Z,99.90
2018-07-02T04:15:52.003Z,99.90
2018-07-02T04:18:21.004Z,99.90
2018-07-02T04:20:49.825Z,99.90
2018-07-02T04:23:18.648Z,99.90
2018-07-02T04:25:47.533Z,99.90
2018-07-02T04:28:16.328Z,99.90
2018-07-02T04:30:45.087Z,99.90
2018-07-02T04:33:13.991Z,99.90
2018-07-02T04:35:42.800Z,99.90
2018-07-02T04:38:11.563Z,99.90
2018-07-02T04:40:40.479Z,99.90
2018-07-02T04:43:09.327Z,99.90
2018-07-02T04:45:38.082Z,99.90
2018-07-02T04:48:06.876Z,99.90
2018-07-02T04:50:35.604Z,99.90
2018-07-02T04:53:04.382Z,99.90
2018-07-02T04:55:33.366Z,99.90
2018-07-02T04:58:02.526Z,99.90
2018-07-02T05:00:31.458Z,99.90
2018-07-02T05:03:00.364Z,99.90
2018-07-02T05:05:29.147Z,99.90
2018-07-02T05:07:57.941Z,99.90
2018-07-02T05:10:26.834Z,99.90
2018-07-02T05:12:55.618Z,99.90
2018-07-02T05:15:24.394Z,99.90
2018-07-02T05:17:53.316Z,99.90
2018-07-02T05:20:22.066Z,99.90
2018-07-02T05:22:50.975Z,99.90
2018-07-02T05:25:19.815Z,99.90
2018-07-02T05:27:48.658Z,99.90
2018-07-02T05:30:17.442Z,99.90
2018-07-02T05:32:46.239Z,99.90
2018-07-02T05:35:15.000Z,99.90
2018-07-02T05:37:43.823Z,99.90
2018-07-02T05:40:12.706Z,99.90
2018-07-02T05:42:41.480Z,99.90
2018-07-02T05:45:10.263Z,99.90
2018-07-02T05:47:39.024Z,99.90
2018-07-02T05:50:07.806Z,99.90
2018-07-02T05:52:36.547Z,99.90
2018-07-02T05:55:05.543Z,99.90
2018-07-02T05:57:34.302Z,99.90
2018-07-02T06:00:03.141Z,99.90
2018-07-02T06:02:31.916Z,99.90
2018-07-02T06:05:00.811Z,99.90
2018-07-02T06:07:29.906Z,99.90
2018-07-02T06:09:58.807Z,99.90
2018-07-02T06:12:27.550Z,99.90
2018-07-02T06:14:56.473Z,99.90
2018-07-02T06:17:25.263Z,99.90
2018-07-02T06:19:54.045Z,99.90
2018-07-02T06:22:22.834Z,99.90
2018-07-02T06:24:51.630Z,99.90
2018-07-02T06:27:20.405Z,99.90
2018-07-02T06:29:49.195Z,99.90
2018-07-02T06:32:17.999Z,99.90
2018-07-02T06:34:46.881Z,99.90
2018-07-02T06:37:15.724Z,99.90
2018-07-02T06:39:44.467Z,99.90
2018-07-02T06:42:13.223Z,99.90
2018-07-02T06:44:42.000Z,99.90
2018-07-02T06:47:10.843Z,99.90
2018-07-02T06:49:39.622Z,99.90
2018-07-02T06:52:08.401Z,99.90
2018-07-02T06:54:37.203Z,99.90
2018-07-02T06:57:05.934Z,99.90
2018-07-02T06:59:34.742Z,99.90
2018-07-02T07:02:03.589Z,99.90
2018-07-02T07:04:32.358Z,99.90
2018-07-02T07:07:01.163Z,99.90
2018-07-02T07:09:30.288Z,99.90
2018-07-02T07:11:59.034Z,99.90
2018-07-02T07:14:27.823Z,99.90
2018-07-02T07:16:56.571Z,99.90
2018-07-02T07:19:25.397Z,99.90
2018-07-02T07:21:54.340Z,99.90
2018-07-02T07:24:23.183Z,99.90
2018-07-02T07:26:51.947Z,99.60
2018-07-02T07:29:20.771Z,99.10
2018-07-02T07:31:49.542Z,98.10
2018-07-02T07:34:18.434Z,94.80
2018-07-02T07:36:47.215Z,96.30
2018-07-02T07:39:15.999Z,94.20
2018-07-02T07:41:44.774Z,95.10
2018-07-02T07:44:13.598Z,93.80
2018-07-02T07:46:42.386Z,94.90
2018-07-02T07:49:11.174Z,96.70
2018-07-02T07:51:39.953Z,96.00
2018-07-02T07:54:09.105Z,95.50
2018-07-02T07:56:37.858Z,92.90
2018-07-02T07:59:06.648Z,90.30
2018-07-02T08:01:35.510Z,86.50
2018-07-02T08:04:04.330Z,86.50
2018-07-02T08:06:33.115Z,87.30
2018-07-02T08:09:01.905Z,84.30
2018-07-02T08:11:30.663Z,86.20
2018-07-02T08:13:59.475Z,84.90
2018-07-02T08:16:28.263Z,88.30
2018-07-02T08:18:57.114Z,84.50
2018-07-02T08:21:25.947Z,88.20
2018-07-02T08:23:54.762Z,82.70
2018-07-02T08:26:23.526Z,83.60
2018-07-02T08:28:58.832Z,89.10
2018-07-02T08:31:27.663Z,80.40
2018-07-02T08:33:56.459Z,83.50
2018-07-02T08:36:25.207Z,84.50
2018-07-02T08:38:54.033Z,84.70
2018-07-02T08:41:22.833Z,80.50
2018-07-02T08:43:51.606Z,81.90
2018-07-02T08:46:20.394Z,80.90
2018-07-02T08:48:49.182Z,78.00
2018-07-02T08:51:17.971Z,75.80
2018-07-02T08:53:47.062Z,78.90
2018-07-02T08:56:15.887Z,82.70
2018-07-02T08:58:44.645Z,78.40
2018-07-02T09:01:13.463Z,75.20
2018-07-02T09:03:42.285Z,77.70
2018-07-02T09:06:11.061Z,73.20
2018-07-02T09:08:39.885Z,76.60
2018-07-02T09:11:08.679Z,75.60
2018-07-02T09:16:05.967Z,75.50
2018-07-02T09:18:34.835Z,74.70
2018-07-02T09:21:03.595Z,73.00
2018-07-02T09:23:32.338Z,71.60
2018-07-02T09:26:01.124Z,68.10
2018-07-02T09:28:29.865Z,70.80
2018-07-02T09:30:58.705Z,71.10
2018-07-02T09:33:27.459Z,73.20
2018-07-02T09:35:56.287Z,74.60
2018-07-02T09:38:25.587Z,72.10
2018-07-02T09:40:54.382Z,72.70
2018-07-02T09:43:23.139Z,71.40
2018-07-02T09:45:52.168Z,71.40
2018-07-02T09:48:20.946Z,72.10
2018-07-02T09:50:49.719Z,72.00
2018-07-02T09:53:18.474Z,71.20
2018-07-02T09:55:47.240Z,71.00
2018-07-02T09:58:15.978Z,69.10
2018-07-02T10:00:44.765Z,69.70
2018-07-02T10:03:13.594Z,69.00
2018-07-02T10:05:42.382Z,64.70
2018-07-02T10:08:11.258Z,65.40
2018-07-02T10:10:40.027Z,65.50
2018-07-02T10:13:08.778Z,65.70
2018-07-02T10:15:37.548Z,65.40
2018-07-02T10:18:06.322Z,63.50
2018-07-02T10:20:35.204Z,64.60
2018-07-02T10:23:04.102Z,65.00
2018-07-02T10:25:32.890Z,65.40
2018-07-02T10:28:01.645Z,66.00
2018-07-02T10:30:30.495Z,66.30
2018-07-02T10:32:59.255Z,66.80
2018-07-02T10:35:28.051Z,66.00
2018-07-02T10:37:56.808Z,64.60
2018-07-02T10:40:25.619Z,64.60
2018-07-02T10:42:54.378Z,64.00
2018-07-02T10:45:23.151Z,64.30
2018-07-02T10:47:52.149Z,65.00
2018-07-02T10:50:21.057Z,64.10
2018-07-02T10:52:49.925Z,61.80
2018-07-02T10:55:18.815Z,62.60
2018-07-02T10:57:47.600Z,60.60
2018-07-02T11:00:16.395Z,63.80
2018-07-02T11:02:45.175Z,61.30
2018-07-02T11:05:13.993Z,60.60
2018-07-02T11:07:42.923Z,59.40
2018-07-02T11:10:11.709Z,59.30
2018-07-02T11:12:40.476Z,59.30
2018-07-02T11:15:09.234Z,58.10
2018-07-02T11:17:38.062Z,57.10
2018-07-02T11:20:06.811Z,56.20
2018-07-02T11:22:35.583Z,56.50
2018-07-02T11:25:04.388Z,56.50
2018-07-02T11:27:33.995Z,57.20
2018-07-02T11:30:02.777Z,57.40
2018-07-02T11:32:31.580Z,56.30
2018-07-02T11:35:00.327Z,54.40
2018-07-02T11:39:57.564Z,55.60
2018-07-02T11:42:26.346Z,55.60
2018-07-02T11:44:55.158Z,56.90
2018-07-02T11:47:24.003Z,56.40
2018-07-02T11:49:52.978Z,54.60
2018-07-02T11:52:21.811Z,55.00
2018-07-02T11:54:50.628Z,55.40
2018-07-02T11:57:19.411Z,54.80
2018-07-02T11:59:48.160Z,53.70
2018-07-02T12:02:17.007Z,55.00
2018-07-02T12:04:45.759Z,53.10
2018-07-02T12:07:14.625Z,53.60
2018-07-02T12:09:43.394Z,52.70
2018-07-02T12:12:12.908Z,51.30
2018-07-02T12:14:41.707Z,53.00
2018-07-02T12:17:10.524Z,48.40
2018-07-02T12:19:39.435Z,46.10
2018-07-02T12:22:08.197Z,44.30
2018-07-02T12:24:37.068Z,44.70
2018-07-02T12:27:05.848Z,45.20
2018-07-02T12:29:34.658Z,45.70
2018-07-02T12:32:03.438Z,46.40
2018-07-02T12:34:32.244Z,47.00
2018-07-02T12:37:01.022Z,48.40
2018-07-02T12:39:29.806Z,49.60
2018-07-02T12:41:58.608Z,50.20
2018-07-02T12:44:27.384Z,51.50
2018-07-02T12:46:56.195Z,52.40
2018-07-02T12:49:25.009Z,52.70
2018-07-02T12:51:53.752Z,53.60
2018-07-02T12:54:22.519Z,54.00
2018-07-02T12:56:51.377Z,53.50
2018-07-02T12:59:20.121Z,50.90
2018-07-02T13:01:48.964Z,45.90
2018-07-02T13:04:17.746Z,42.30
2018-07-02T13:06:46.488Z,40.00
2018-07-02T13:09:15.258Z,37.80
2018-07-02T13:11:44.063Z,35.50
2018-07-02T13:14:12.958Z,36.20
2018-07-02T13:16:41.722Z,37.50
2018-07-02T13:19:10.534Z,38.90
2018-07-02T13:21:39.371Z,39.80
2018-07-02T13:24:08.159Z,41.20
2018-07-02T13:26:37.002Z,43.30
2018-07-02T13:29:05.823Z,43.30
2018-07-02T13:31:34.568Z,44.80
2018-07-02T13:34:03.350Z,45.50
2018-07-02T13:36:32.153Z,44.20
2018-07-02T13:39:00.907Z,41.00
2018-07-02T13:41:29.777Z,38.70
2018-07-02T13:43:58.575Z,37.70
2018-07-02T13:46:27.319Z,35.20
2018-07-02T13:48:56.227Z,35.50
2018-07-02T13:51:24.970Z,35.10
2018-07-02T13:53:53.756Z,37.20
2018-07-02T13:58:51.070Z,41.30
2018-07-02T14:01:19.815Z,41.30
2018-07-02T14:06:17.090Z,40.70
2018-07-02T14:08:45.867Z,39.50
2018-07-02T14:11:14.606Z,40.40
2018-07-02T14:13:43.410Z,40.20
2018-07-02T14:16:12.158Z,40.40
2018-07-02T14:18:41.063Z,40.90
2018-07-02T14:21:09.842Z,39.80
2018-07-02T14:23:38.746Z,38.70
2018-07-02T14:26:07.624Z,36.50
2018-07-02T14:28:36.426Z,34.30
2018-07-02T14:31:05.210Z,33.60
2018-07-02T14:33:33.972Z,31.50
2018-07-02T14:36:02.846Z,31.30
2018-07-02T14:38:31.682Z,28.90
2018-07-02T14:41:00.478Z,28.00
2018-07-02T14:43:29.281Z,28.30
2018-07-02T14:45:58.039Z,28.10
2018-07-02T14:48:27.057Z,27.90
2018-07-02T14:50:55.988Z,28.20
2018-07-02T14:53:24.843Z,27.90
2018-07-02T14:55:53.773Z,28.00
2018-07-02T14:58:22.509Z,28.60
2018-07-02T15:00:51.491Z,29.30
2018-07-02T15:03:20.411Z,28.90
2018-07-02T15:05:50.090Z,29.00
2018-07-02T15:10:47.487Z,28.80
2018-07-02T15:13:16.307Z,29.20
2018-07-02T15:15:45.370Z,29.80
2018-07-02T15:18:14.635Z,29.80
2018-07-02T15:20:43.375Z,30.40
2018-07-02T15:23:12.400Z,31.50
2018-07-02T15:25:41.186Z,32.30
2018-07-02T15:28:09.914Z,33.20
2018-07-02T15:30:38.718Z,32.30
2018-07-02T15:33:07.528Z,31.60
2018-07-02T15:35:36.407Z,30.60
2018-07-02T15:38:05.393Z,30.30
2018-07-02T15:40:34.238Z,30.20
2018-07-02T15:43:03.066Z,29.70
2018-07-02T15:45:31.959Z,28.80
2018-07-02T15:48:00.860Z,28.30
2018-07-02T15:50:29.667Z,27.10
2018-07-02T15:52:58.551Z,26.70
2018-07-02T15:55:27.488Z,26.70
2018-07-02T15:57:56.238Z,27.30
2018-07-02T16:00:25.088Z,28.00
2018-07-02T16:05:22.326Z,28.00
2018-07-02T16:07:51.219Z,28.90
2018-07-02T16:10:19.991Z,28.50
2018-07-02T16:12:48.921Z,29.50
2018-07-02T16:15:17.622Z,29.20
2018-07-02T16:22:50.193Z,29.20
2018-07-02T16:25:18.975Z,28.20
2018-07-02T16:27:47.939Z,28.10
2018-07-02T16:30:16.728Z,28.10
2018-07-02T16:32:45.508Z,28.70
2018-07-02T16:35:14.324Z,29.50
2018-07-02T16:37:43.089Z,30.50
2018-07-02T16:40:11.875Z,30.40
2018-07-02T16:42:40.627Z,31.80
2018-07-02T16:47:44.532Z,33.80
2018-07-02T16:50:13.456Z,34.50
2018-07-02T16:52:42.201Z,35.00
2018-07-02T16:55:11.165Z,34.90
2018-07-02T16:57:39.974Z,35.50
2018-07-02T17:00:08.754Z,36.50
2018-07-02T17:02:37.687Z,36.10
2018-07-02T17:05:06.746Z,36.30
2018-07-02T17:07:35.505Z,36.20
2018-07-02T17:10:04.540Z,36.20
2018-07-02T17:12:33.376Z,36.20
2018-07-02T17:15:02.203Z,36.80
2018-07-02T17:17:31.007Z,36.80
2018-07-02T17:19:59.806Z,37.60
2018-07-02T17:22:28.648Z,37.10
2018-07-02T17:24:57.507Z,37.30
2018-07-02T17:27:26.226Z,37.70
2018-07-02T17:29:55.006Z,38.10
2018-07-02T17:34:52.214Z,37.90
2018-07-02T17:37:21.207Z,38.40
2018-07-02T17:39:50.095Z,38.30
2018-07-02T17:42:18.932Z,38.50
2018-07-02T17:44:47.694Z,38.50
2018-07-02T17:47:16.447Z,37.10
2018-07-02T17:49:45.341Z,36.50
2018-07-02T17:52:14.098Z,34.30
2018-07-02T17:54:42.886Z,33.30
2018-07-02T17:57:11.766Z,32.90
2018-07-02T17:59:40.514Z,32.80
2018-07-02T18:02:09.383Z,32.40
2018-07-02T18:04:38.170Z,31.80
2018-07-02T18:07:06.940Z,30.30
2018-07-02T18:09:35.702Z,30.80
2018-07-02T18:12:04.459Z,32.10
2018-07-02T18:14:33.218Z,32.30
2018-07-02T18:17:02.039Z,32.40
2018-07-02T18:19:30.907Z,33.00
2018-07-02T18:24:28.161Z,33.00
2018-07-02T18:26:56.988Z,33.10
2018-07-02T18:29:25.776Z,33.40
2018-07-02T18:31:54.575Z,33.60
2018-07-02T18:34:23.374Z,33.50
2018-07-02T18:36:52.206Z,34.00
2018-07-02T18:39:21.023Z,34.30
2018-07-02T18:41:49.916Z,35.40
2018-07-02T18:44:18.724Z,35.60
2018-07-02T18:46:47.513Z,35.30
2018-07-02T18:49:16.281Z,35.60
2018-07-02T18:51:45.092Z,36.30
2018-07-02T18:54:13.863Z,36.80
2018-07-02T18:56:42.705Z,37.50
2018-07-02T18:59:11.466Z,38.30
2018-07-02T19:01:40.255Z,38.90
2018-07-02T19:04:09.010Z,40.00
2018-07-02T19:06:37.922Z,40.50
2018-07-02T19:09:08.598Z,41.40
2018-07-02T19:11:37.377Z,42.10
2018-07-02T19:14:06.140Z,42.70
2018-07-02T19:16:35.187Z,43.20
2018-07-02T19:19:04.004Z,43.90
2018-07-02T19:21:32.803Z,44.60
2018-07-02T19:24:01.582Z,45.70
2018-07-02T19:26:30.339Z,45.50
2018-07-02T19:28:59.166Z,46.80
2018-07-02T19:31:28.067Z,47.90
2018-07-02T19:33:56.959Z,47.80
2018-07-02T19:36:25.831Z,47.30
2018-07-02T19:38:54.683Z,47.30
2018-07-02T19:41:23.495Z,48.00
2018-07-02T19:46:20.948Z,49.10
2018-07-02T19:48:49.671Z,50.20
2018-07-02T19:51:18.552Z,49.80
2018-07-02T19:53:47.302Z,50.10
2018-07-02T19:56:16.175Z,50.40
2018-07-02T19:58:45.673Z,51.00
2018-07-02T20:01:15.106Z,51.20
2018-07-02T20:03:43.867Z,51.80
2018-07-02T20:06:13.156Z,51.80
2018-07-02T20:08:41.911Z,52.20
2018-07-02T20:11:10.698Z,53.30
2018-07-02T20:13:39.481Z,53.10
2018-07-02T20:16:08.264Z,53.10
2018-07-02T20:18:37.309Z,53.90
2018-07-02T20:21:06.099Z,53.80
2018-07-02T20:23:34.924Z,54.30
2018-07-02T20:26:03.792Z,54.40
2018-07-02T20:28:32.899Z,54.90
2018-07-02T20:31:01.770Z,55.20
2018-07-02T20:33:30.662Z,55.40
2018-07-02T20:35:59.491Z,55.80
2018-07-02T20:38:28.345Z,56.20
2018-07-02T20:40:57.112Z,56.30
2018-07-02T20:43:25.883Z,56.60
2018-07-02T20:45:54.674Z,57.20
2018-07-02T20:48:23.469Z,57.30
2018-07-02T20:50:52.224Z,57.70
2018-07-02T20:53:21.064Z,57.90
2018-07-02T20:55:49.834Z,58.40
2018-07-02T20:58:18.753Z,58.50
2018-07-02T21:00:47.523Z,58.80
2018-07-02T21:03:16.301Z,59.40
2018-07-02T21:05:45.133Z,59.20
2018-07-02T21:08:14.028Z,59.70
2018-07-02T21:10:42.908Z,60.30
2018-07-02T21:13:11.708Z,61.10
2018-07-02T21:15:40.573Z,60.80
2018-07-02T21:18:09.383Z,61.00
2018-07-02T21:20:38.133Z,62.30
2018-07-02T21:23:06.962Z,62.10
2018-07-02T21:25:36.208Z,62.30
2018-07-02T21:28:05.298Z,62.90
2018-07-02T21:30:34.143Z,63.30
2018-07-02T21:33:03.135Z,63.90
2018-07-02T21:35:32.443Z,64.20
2018-07-02T21:38:01.321Z,64.50
2018-07-02T21:42:58.699Z,65.60
2018-07-02T21:45:27.595Z,66.00
2018-07-02T21:47:56.379Z,66.60
2018-07-02T21:50:25.123Z,66.60
2018-07-02T21:52:54.422Z,67.10
2018-07-02T21:55:23.286Z,67.70
2018-07-02T21:57:52.287Z,68.10
2018-07-02T22:00:21.031Z,68.70
2018-07-02T22:02:49.835Z,70.20
2018-07-02T22:05:18.609Z,70.30
2018-07-02T22:07:47.393Z,70.70
2018-07-02T22:10:16.151Z,71.20
2018-07-02T22:12:44.940Z,71.70
2018-07-02T22:15:13.670Z,72.30
2018-07-02T22:17:42.622Z,73.70
2018-07-02T22:20:11.526Z,72.30
2018-07-02T22:22:40.372Z,72.70
2018-07-02T22:25:09.118Z,73.80
2018-07-02T22:27:37.941Z,73.70
2018-07-02T22:30:06.727Z,75.30
2018-07-02T22:32:35.618Z,76.90
2018-07-02T22:35:04.407Z,79.40
2018-07-02T22:37:33.173Z,76.90
2018-07-02T22:40:01.975Z,77.10
2018-07-02T22:44:59.302Z,80.70
2018-07-02T22:47:28.143Z,79.00
2018-07-02T22:49:56.934Z,79.30
2018-07-02T22:52:25.679Z,79.40
2018-07-02T22:54:54.484Z,80.80
2018-07-02T22:57:23.302Z,80.90
2018-07-02T22:59:52.910Z,82.50
2018-07-02T23:02:21.692Z,81.20
2018-07-02T23:04:50.469Z,80.80
2018-07-02T23:07:19.280Z,81.60
2018-07-02T23:09:48.075Z,83.90
2018-07-02T23:12:16.835Z,82.70
2018-07-02T23:14:45.747Z,82.30
2018-07-02T23:17:14.523Z,83.10
2018-07-02T23:19:43.327Z,84.80
2018-07-02T23:22:12.125Z,87.90
2018-07-02T23:24:41.007Z,88.60
2018-07-02T23:27:09.819Z,86.00
2018-07-02T23:29:38.592Z,86.70
2018-07-02T23:32:07.385Z,86.60
2018-07-02T23:34:36.164Z,87.00
2018-07-02T23:37:05.554Z,87.80
2018-07-02T23:39:34.371Z,88.50
2018-07-02T23:42:03.142Z,88.90
2018-07-02T23:44:31.939Z,88.30
2018-07-02T23:47:00.833Z,88.60
2018-07-02T23:49:29.644Z,89.80
2018-07-02T23:51:58.407Z,90.00
2018-07-02T23:54:27.198Z,90.10
2018-07-02T23:56:55.988Z,90.20
2018-07-02T23:59:24.774Z,90.90
